Susan Moran — WDA6881 — position and weather

sailwx.info

Track history (hours):
 
Tides and Currents Weather Stations Pressure Air Temp Water Temp Dewpoint Dewpoint Depression Visibility Wind Speed Wind Dir Waves Ship Positions

Susan Moran

Owner: MORAN TOWING CORPORATION, New Canaan, CT. More information available from US FCC via Universal Licensing System and Coast Guard Vessel Documentation Center.

Last reported at 2018-Feb-20 22:59 UTC. Time now 2018-Feb-20 23:29 UTC.
Position N 36°57' W 076°20'.

Length 27 m; draft 4.2 m.

Type: Tug. MMSI: 366837130.

Date/timePositionNaut miles runAvg speedWind from/ knotsBaromVisibWave heightAir tempDewpointWater temp
2018-Feb-20 22:59N 36°57' W 076°20'0 0.0
2018-Feb-20 22:28N 36°57' W 076°20'0 0.0
2018-Feb-20 21:57N 36°57' W 076°20'0 0.0
2018-Feb-20 21:28N 36°57' W 076°20'0 0.0
2018-Feb-20 20:56N 36°57' W 076°20'0 0.0
2018-Feb-20 20:26N 36°57' W 076°20'0 0.0
2018-Feb-20 20:00N 36°57' W 076°20'0 0.0
2018-Feb-20 19:29N 36°57' W 076°20'0 0.0
2018-Feb-20 18:56N 36°57' W 076°20'0 0.0
2018-Feb-20 18:26N 36°57' W 076°20'0 0.0
2018-Feb-20 17:57N 36°57' W 076°20'0 0.0
2018-Feb-20 17:28N 36°57' W 076°20'0 0.0
2018-Feb-20 16:57N 36°57' W 076°20'0 0.0
2018-Feb-20 16:30N 36°57' W 076°20'0 0.0
2018-Feb-20 15:55N 36°57' W 076°20'0 0.0
2018-Feb-20 15:28N 36°57' W 076°20'0 0.0
2018-Feb-20 14:58N 36°57' W 076°20'0 0.0
2018-Feb-20 14:28N 36°57' W 076°20'0 0.0
2018-Feb-20 13:58N 36°57' W 076°20'0 0.0
2018-Feb-20 13:25N 36°57' W 076°20'0 0.0
2018-Feb-20 12:59N 36°57' W 076°20'0 0.0
2018-Feb-20 12:29N 36°57' W 076°20'0 0.0
2018-Feb-20 11:44N 36°57' W 076°20'0 0.0
2018-Feb-20 11:25N 36°57' W 076°20'0 0.0
2018-Feb-20 10:55N 36°57' W 076°20'0 0.0
2018-Feb-20 10:30N 36°57' W 076°20'0 0.0
2018-Feb-20 10:00N 36°57' W 076°20'0 0.0
2018-Feb-20 09:22N 36°57' W 076°20'0 0.0
2018-Feb-20 08:56N 36°57' W 076°20'0 0.0
2018-Feb-20 08:30N 36°57' W 076°20'0 0.0
2018-Feb-20 07:57N 36°57' W 076°20'0 0.0
2018-Feb-20 07:27N 36°57' W 076°20'0 0.0
2018-Feb-20 06:56N 36°57' W 076°20'0 0.0
2018-Feb-20 06:26N 36°57' W 076°20'0 0.0
2018-Feb-20 06:00N 36°57' W 076°20'0 0.0
2018-Feb-20 05:30N 36°57' W 076°20'0 0.0
2018-Feb-20 04:59N 36°57' W 076°20'0 0.0
2018-Feb-20 04:29N 36°57' W 076°20'0 0.0
2018-Feb-20 03:58N 36°57' W 076°20'0 0.0
2018-Feb-20 03:27N 36°57' W 076°20'0 0.0
2018-Feb-20 02:57N 36°57' W 076°20'0 0.0
2018-Feb-20 02:26N 36°57' W 076°20'0 0.0
2018-Feb-20 02:00N 36°57' W 076°20'0 0.0
2018-Feb-20 01:30N 36°57' W 076°20'0 0.0
2018-Feb-20 00:59N 36°57' W 076°20'0 0.0
2018-Feb-20 00:29N 36°57' W 076°20'0 0.0
2018-Feb-19 23:58N 36°57' W 076°20'0 0.0
2018-Feb-19 23:28N 36°57' W 076°20'0 0.0
2018-Feb-19 22:56N 36°57' W 076°20'1 2.3
2018-Feb-19 22:30N 36°56' W 076°20'0 0.1
2018-Feb-19 21:57N 36°56' W 076°20'1 1.9
2018-Feb-19 21:14N 36°58' W 076°20'1 2.8
2018-Feb-19 20:51N 36°57' W 076°20'0 0.7
2018-Feb-19 20:27N 36°57' W 076°20'2 3.4
2018-Feb-19 19:56N 36°58' W 076°20'1 2.3
2018-Feb-19 19:23N 36°57' W 076°20'0 0.0
2018-Feb-19 18:50N 36°57' W 076°20'0 0.0
2018-Feb-19 18:29N 36°57' W 076°20'0 0.0
2018-Feb-19 18:00N 36°57' W 076°20'0 0.4
2018-Feb-19 17:30N 36°57' W 076°20'510.3
2018-Feb-19 17:00N 36°52' W 076°20'2 3.7
2018-Feb-19 16:29N 36°54' W 076°20'3 5.0
2018-Feb-19 15:50N 36°57' W 076°20'0 0.4
2018-Feb-19 15:30N 36°57' W 076°20'1 1.7
2018-Feb-19 14:58N 36°56' W 076°20'4 8.0
2018-Feb-19 14:30N 36°53' W 076°20'2 3.8
2018-Feb-19 13:58N 36°55' W 076°20'2 4.4
2018-Feb-19 13:29N 36°57' W 076°20'0 0.5
2018-Feb-19 12:59N 36°57' W 076°20'1 0.9
2018-Feb-19 12:22N 36°57' W 076°20'0 0.0
2018-Feb-19 11:56N 36°57' W 076°20'0 0.0
2018-Feb-19 11:26N 36°57' W 076°20'0 0.0
2018-Feb-19 11:00N 36°57' W 076°20'0 0.0
2018-Feb-19 10:30N 36°57' W 076°20'0 0.0
2018-Feb-19 09:59N 36°57' W 076°20'0 0.0
2018-Feb-19 09:29N 36°57' W 076°20'0 0.0
2018-Feb-19 08:39N 36°57' W 076°20'0 0.0
2018-Feb-19 08:24N 36°57' W 076°20'0 0.0
2018-Feb-19 07:58N 36°57' W 076°20'0 0.0
2018-Feb-19 07:26N 36°57' W 076°20'0 0.0
2018-Feb-19 06:57N 36°57' W 076°20'0 0.0
2018-Feb-19 06:17N 36°57' W 076°20'0 0.0
2018-Feb-19 05:57N 36°57' W 076°20'0 0.0
2018-Feb-19 05:26N 36°57' W 076°20'0 0.0
2018-Feb-19 04:56N 36°57' W 076°20'0 0.0
2018-Feb-19 04:30N 36°57' W 076°20'0 0.0
2018-Feb-19 03:52N 36°57' W 076°20'0 0.0
2018-Feb-19 03:26N 36°57' W 076°20'0 0.0
2018-Feb-19 03:00N 36°57' W 076°20'0 0.0
2018-Feb-19 02:29N 36°57' W 076°20'0 0.0
2018-Feb-19 01:59N 36°57' W 076°20'0 0.0
2018-Feb-19 01:27N 36°57' W 076°20'0 0.0
2018-Feb-19 01:00N 36°57' W 076°20'0 0.0
2018-Feb-19 00:28N 36°57' W 076°20'0 0.0
2018-Feb-18 23:58N 36°57' W 076°20'0 0.0
2018-Feb-18 23:27N 36°57' W 076°20'0 0.0
2018-Feb-18 22:59N 36°57' W 076°20'0 0.0
2018-Feb-18 22:30N 36°57' W 076°20'0 0.0
2018-Feb-18 21:31N 36°57' W 076°20'0 0.0
2018-Feb-18 21:23N 36°57' W 076°20'0 0.0
2018-Feb-18 20:58N 36°57' W 076°20'0 0.0
2018-Feb-18 20:27N 36°57' W 076°20'0 0.0
2018-Feb-18 19:57N 36°57' W 076°20'0 0.0
2018-Feb-18 19:27N 36°57' W 076°20'0 0.0
2018-Feb-18 18:59N 36°57' W 076°20'0 0.0
2018-Feb-18 18:30N 36°57' W 076°20'0 0.0
2018-Feb-18 17:46N 36°57' W 076°20'0 0.0
2018-Feb-18 17:26N 36°57' W 076°20'0 0.0
2018-Feb-18 17:00N 36°57' W 076°20'0 0.0
2018-Feb-18 16:27N 36°57' W 076°20'0 0.0
2018-Feb-18 15:56N 36°57' W 076°20'0 0.0
2018-Feb-18 15:25N 36°57' W 076°20'0 0.0
2018-Feb-18 14:58N 36°57' W 076°20'0 0.0
2018-Feb-18 14:27N 36°57' W 076°20'0 0.0
2018-Feb-18 13:56N 36°57' W 076°20'0 0.0
2018-Feb-18 13:26N 36°57' W 076°20'0 0.0
2018-Feb-18 12:56N 36°57' W 076°20'0 0.0
2018-Feb-18 12:30N 36°57' W 076°20'0 0.0
2018-Feb-18 11:59N 36°57' W 076°20'0 0.0
2018-Feb-18 11:24N 36°57' W 076°20'0 0.0
2018-Feb-18 10:51N 36°57' W 076°20'0 0.0
2018-Feb-18 10:26N 36°57' W 076°20'0 0.0
2018-Feb-18 09:48N 36°57' W 076°20'0 0.0
2018-Feb-18 09:23N 36°57' W 076°20'0 0.0
2018-Feb-18 08:59N 36°57' W 076°20'0 0.0
2018-Feb-18 08:28N 36°57' W 076°20'0 0.0
2018-Feb-18 07:57N 36°57' W 076°20'0 0.0
2018-Feb-18 07:22N 36°57' W 076°20'0 0.0
2018-Feb-18 06:51N 36°57' W 076°20'0 0.0
2018-Feb-18 06:26N 36°57' W 076°20'0 0.0
2018-Feb-18 06:00N 36°57' W 076°20'0 0.0
2018-Feb-18 05:29N 36°57' W 076°20'0 0.0
2018-Feb-18 04:59N 36°57' W 076°20'0 0.0
2018-Feb-18 04:28N 36°57' W 076°20'0 0.0
2018-Feb-18 03:55N 36°57' W 076°20'0 0.0
2018-Feb-18 03:29N 36°57' W 076°20'0 0.0
2018-Feb-18 02:58N 36°57' W 076°20'0 0.0
2018-Feb-18 02:28N 36°57' W 076°20'0 0.0
2018-Feb-18 01:57N 36°57' W 076°20'0 0.0
2018-Feb-18 01:30N 36°57' W 076°20'0 0.0
2018-Feb-18 00:57N 36°57' W 076°20'0 0.0
2018-Feb-18 00:26N 36°57' W 076°20'0 0.0
2018-Feb-18 00:00N 36°57' W 076°20'0 0.0
2018-Feb-17 23:29N 36°57' W 076°20'0 0.0
2018-Feb-17 22:59N 36°57' W 076°20'0 0.0
2018-Feb-17 22:29N 36°57' W 076°20'0 0.0
2018-Feb-17 21:59N 36°57' W 076°20'0 0.0
2018-Feb-17 21:28N 36°57' W 076°20'0 0.0
2018-Feb-17 20:58N 36°57' W 076°20'0 0.0
2018-Feb-17 20:27N 36°57' W 076°20'0 0.0
2018-Feb-17 19:57N 36°57' W 076°20'0 0.0
2018-Feb-17 19:27N 36°57' W 076°20'0 0.0
2018-Feb-17 18:57N 36°57' W 076°20'0 0.0
2018-Feb-17 18:27N 36°57' W 076°20'0 0.0
2018-Feb-17 17:56N 36°57' W 076°20'0 0.0
2018-Feb-17 17:26N 36°57' W 076°20'0 0.0
2018-Feb-17 17:00N 36°57' W 076°20'0 0.0
2018-Feb-17 16:30N 36°57' W 076°20'0 0.0
2018-Feb-17 15:59N 36°57' W 076°20'0 0.0
2018-Feb-17 15:29N 36°57' W 076°20'0 0.0
2018-Feb-17 14:58N 36°57' W 076°20'0 0.0
2018-Feb-17 14:28N 36°57' W 076°20'0 0.0
2018-Feb-17 01:21N 36°57' W 076°20'0 0.0
2018-Feb-17 00:56N 36°57' W 076°20'0 0.0
2018-Feb-17 00:29N 36°57' W 076°20'0 0.0
2018-Feb-16 23:54N 36°57' W 076°20'0 0.0
2018-Feb-16 23:27N 36°57' W 076°20'0 0.0
2018-Feb-16 22:46N 36°57' W 076°20'0 0.0
2018-Feb-16 22:30N 36°57' W 076°20'0 0.0
2018-Feb-16 21:59N 36°57' W 076°20'0 0.0
2018-Feb-16 21:28N 36°57' W 076°20'0 0.0
2018-Feb-16 20:57N 36°57' W 076°20'0 0.0
2018-Feb-16 20:28N 36°57' W 076°20'0 0.0
2018-Feb-16 19:57N 36°57' W 076°20'0 0.0
2018-Feb-16 19:29N 36°57' W 076°20'0 0.0
2018-Feb-16 18:58N 36°57' W 076°20'0 0.0
2018-Feb-16 18:27N 36°57' W 076°20'0 0.0
2018-Feb-16 17:56N 36°57' W 076°20'2 4.4
2018-Feb-16 17:29N 36°59' W 076°19'510.5
2018-Feb-16 16:59N 36°60' W 076°12'5 8.2
2018-Feb-16 16:23N 37°04' W 076°10'411.2
2018-Feb-16 16:00N 37°08' W 076°13'3 0.7
2018-Feb-16 12:00N 37°11' W 076°14'611.2
2018-Feb-16 11:29N 37°06' W 076°11'5 9.4
2018-Feb-16 10:54N 37°00' W 076°12'511.5
2018-Feb-16 10:29N 36°60' W 076°18'3 0.3
2018-Feb-16 00:07N 36°57' W 076°20'0 0.0
2018-Feb-15 23:57N 36°57' W 076°20'0 0.0
2018-Feb-15 23:14N 36°57' W 076°20'0 0.0
2018-Feb-15 22:59N 36°57' W 076°20'0 0.0
2018-Feb-15 22:28N 36°57' W 076°20'0 0.0
2018-Feb-15 21:58N 36°57' W 076°20'0 0.4
2018-Feb-15 21:27N 36°57' W 076°20'0 0.7
2018-Feb-15 20:57N 36°57' W 076°20'0 0.3
2018-Feb-15 20:26N 36°57' W 076°20'2 3.2
2018-Feb-15 19:56N 36°58' W 076°20'1 2.8
2018-Feb-15 19:29N 36°57' W 076°20'0 0.0
2018-Feb-15 18:57N 36°57' W 076°20'0 0.0
2018-Feb-15 18:28N 36°57' W 076°20'0 0.0
2018-Feb-15 18:00N 36°57' W 076°20'0 0.0
2018-Feb-15 17:30N 36°57' W 076°20'0 0.0
2018-Feb-15 17:00N 36°57' W 076°20'0 0.0
2018-Feb-15 16:29N 36°57' W 076°20'0 0.0
2018-Feb-15 15:59N 36°57' W 076°20'0 0.0
2018-Feb-15 15:28N 36°57' W 076°20'0 0.0
2018-Feb-15 14:57N 36°57' W 076°20'0 0.0
2018-Feb-15 14:26N 36°57' W 076°20'0 0.0
2018-Feb-15 13:59N 36°57' W 076°20'0 0.0
2018-Feb-15 13:28N 36°57' W 076°20'0 0.0
2018-Feb-15 12:58N 36°57' W 076°20'0 0.0
2018-Feb-15 12:27N 36°57' W 076°20'0 0.0
2018-Feb-15 11:57N 36°57' W 076°20'0 0.0
2018-Feb-15 11:27N 36°57' W 076°20'0 0.0
2018-Feb-15 10:56N 36°57' W 076°20'0 0.0
2018-Feb-15 10:29N 36°57' W 076°20'0 0.0
2018-Feb-15 09:59N 36°57' W 076°20'0 0.0
2018-Feb-15 09:27N 36°57' W 076°20'0 0.0
2018-Feb-15 08:59N 36°57' W 076°20'0 0.0
2018-Feb-15 08:09N 36°57' W 076°20'0 0.0
2018-Feb-15 07:39N 36°57' W 076°20'0 0.0
2018-Feb-15 07:30N 36°57' W 076°20'0 0.0
2018-Feb-15 06:58N 36°57' W 076°20'0 0.0
2018-Feb-15 06:21N 36°57' W 076°20'0 0.0
2018-Feb-15 05:58N 36°57' W 076°20'0 0.0
2018-Feb-15 05:27N 36°57' W 076°20'0 0.0
2018-Feb-15 04:58N 36°57' W 076°20'0 0.0
2018-Feb-15 04:27N 36°57' W 076°20'0 0.0
2018-Feb-15 04:00N 36°57' W 076°20'0 0.0
2018-Feb-15 03:29N 36°57' W 076°20'0 0.0
2018-Feb-15 02:59N 36°57' W 076°20'0 0.0
2018-Feb-15 02:28N 36°57' W 076°20'0 0.0
2018-Feb-15 01:57N 36°57' W 076°20'0 0.0
2018-Feb-15 01:27N 36°57' W 076°20'0 0.0
2018-Feb-15 00:56N 36°57' W 076°20'0 0.0
2018-Feb-15 00:26N 36°57' W 076°20'0 0.0
2018-Feb-14 23:56N 36°57' W 076°20'0 0.0
2018-Feb-14 23:30N 36°57' W 076°20'0 0.0
2018-Feb-14 23:00N 36°57' W 076°20'0 0.0
2018-Feb-14 22:30N 36°57' W 076°20'0 0.0
2018-Feb-14 21:59N 36°57' W 076°20'0 0.0
2018-Feb-14 21:29N 36°57' W 076°20'0 0.4
2018-Feb-14 20:39N 36°57' W 076°20'0 0.9
2018-Feb-14 20:15N 36°57' W 076°20'0 0.0
2018-Feb-14 20:00N 36°57' W 076°20'0 0.3
2018-Feb-14 19:30N 36°57' W 076°20'510.7
2018-Feb-14 19:00N 36°52' W 076°19'4 8.0
2018-Feb-14 18:30N 36°48' W 076°17'1 1.3
2018-Feb-14 18:00N 36°48' W 076°18'0 0.0
2018-Feb-14 17:30N 36°48' W 076°18'0 0.0
2018-Feb-14 17:01N 36°48' W 076°18'0 0.0
2018-Feb-14 16:30N 36°48' W 076°18'0 0.1
2018-Feb-14 16:00N 36°48' W 076°18'4 7.2
2018-Feb-14 15:30N 36°51' W 076°19'6 9.8
2018-Feb-14 14:53N 36°57' W 076°20'0 0.2
2018-Feb-14 14:28N 36°57' W 076°20'0 0.8
2018-Feb-14 13:58N 36°57' W 076°20'1 1.5
2018-Feb-14 13:28N 36°58' W 076°20'0 0.0
2018-Feb-14 12:57N 36°58' W 076°20'0 0.2
2018-Feb-14 12:27N 36°58' W 076°20'1 1.2
2018-Feb-14 11:56N 36°58' W 076°20'1 2.2
2018-Feb-14 11:28N 36°57' W 076°20'0 0.0
2018-Feb-14 10:58N 36°57' W 076°20'0 0.0
2018-Feb-14 10:27N 36°57' W 076°20'0 0.0
2018-Feb-14 09:57N 36°57' W 076°20'0 0.0
2018-Feb-14 09:26N 36°57' W 076°20'0 0.0
2018-Feb-14 08:56N 36°57' W 076°20'0 0.0
2018-Feb-14 08:26N 36°57' W 076°20'0 0.0
2018-Feb-14 08:00N 36°57' W 076°20'0 0.0
2018-Feb-14 07:30N 36°57' W 076°20'0 0.0
2018-Feb-14 06:59N 36°57' W 076°20'0 0.0
2018-Feb-14 06:29N 36°57' W 076°20'0 0.0
2018-Feb-14 05:59N 36°57' W 076°20'0 0.0
2018-Feb-14 05:28N 36°57' W 076°20'0 0.0
2018-Feb-14 04:58N 36°57' W 076°20'0 0.0
2018-Feb-14 04:28N 36°57' W 076°20'0 0.0
2018-Feb-14 03:57N 36°57' W 076°20'0 0.0
2018-Feb-14 03:27N 36°57' W 076°20'0 0.0
2018-Feb-14 02:57N 36°57' W 076°20'0 0.0
2018-Feb-14 02:26N 36°57' W 076°20'0 0.0
2018-Feb-14 01:54N 36°57' W 076°20'0 0.0
2018-Feb-14 01:29N 36°57' W 076°20'0 0.0
2018-Feb-14 00:53N 36°57' W 076°20'0 0.0
2018-Feb-14 00:23N 36°57' W 076°20'0 0.0
2018-Feb-13 23:57N 36°57' W 076°20'0 0.0
2018-Feb-13 23:29N 36°57' W 076°20'0 0.0
2018-Feb-13 22:59N 36°57' W 076°20'0 0.0
2018-Feb-13 22:27N 36°57' W 076°20'0 0.0
2018-Feb-13 21:57N 36°57' W 076°20'0 0.0
2018-Feb-13 21:26N 36°57' W 076°20'0 0.0
2018-Feb-13 20:59N 36°57' W 076°20'0 0.0
2018-Feb-13 20:29N 36°57' W 076°20'0 0.0
2018-Feb-13 19:58N 36°57' W 076°20'0 0.0
2018-Feb-13 19:28N 36°57' W 076°20'4 9.3
2018-Feb-13 19:01N 36°53' W 076°20'4 7.8
2018-Feb-13 18:30N 36°50' W 076°18'1 1.0
2018-Feb-13 18:00N 36°49' W 076°18'0 0.6
2018-Feb-13 17:31N 36°49' W 076°18'0 0.3
2018-Feb-13 17:00N 36°49' W 076°18'0 0.2
2018-Feb-13 16:31N 36°49' W 076°18'0 0.0
2018-Feb-13 16:00N 36°49' W 076°18'0 0.0
2018-Feb-13 15:31N 36°49' W 076°18'3 5.2
2018-Feb-13 15:00N 36°51' W 076°19'6 9.8
2018-Feb-13 14:26N 36°57' W 076°20'0 1.1
2018-Feb-13 14:00N 36°57' W 076°20'0 0.0
2018-Feb-13 13:28N 36°57' W 076°20'0 0.0
2018-Feb-13 12:58N 36°57' W 076°20'0 0.0
2018-Feb-13 12:22N 36°57' W 076°20'0 0.0
2018-Feb-13 11:54N 36°57' W 076°20'1 1.3
2018-Feb-13 11:26N 36°58' W 076°20'1 1.3
2018-Feb-13 11:00N 36°58' W 076°20'0 0.8
2018-Feb-13 10:29N 36°57' W 076°20'0 0.0
2018-Feb-13 09:57N 36°57' W 076°20'0 0.0
2018-Feb-13 09:26N 36°57' W 076°20'0 0.0
2018-Feb-13 08:55N 36°57' W 076°20'0 0.0
2018-Feb-13 08:29N 36°57' W 076°20'0 0.0
2018-Feb-13 07:59N 36°57' W 076°20'0 0.0
2018-Feb-13 07:27N 36°57' W 076°20'0 0.0
2018-Feb-13 06:57N 36°57' W 076°20'0 0.0
2018-Feb-13 06:26N 36°57' W 076°20'0 0.0
2018-Feb-13 06:00N 36°57' W 076°20'0 0.0
2018-Feb-13 05:30N 36°57' W 076°20'0 0.0
2018-Feb-13 04:59N 36°57' W 076°20'0 0.0
2018-Feb-13 04:29N 36°57' W 076°20'0 0.0
2018-Feb-13 03:59N 36°57' W 076°20'0 0.0
2018-Feb-13 03:28N 36°57' W 076°20'0 0.0
2018-Feb-13 02:58N 36°57' W 076°20'0 0.0
2018-Feb-13 02:28N 36°57' W 076°20'0 0.0
2018-Feb-13 01:57N 36°57' W 076°20'0 0.0
2018-Feb-13 01:27N 36°57' W 076°20'0 0.0
2018-Feb-13 00:56N 36°57' W 076°20'0 0.0
2018-Feb-13 00:30N 36°57' W 076°20'0 0.0
2018-Feb-12 23:58N 36°57' W 076°20'0 0.0
2018-Feb-12 23:25N 36°57' W 076°20'0 0.0
2018-Feb-12 23:00N 36°57' W 076°20'0 0.0
2018-Feb-12 22:29N 36°57' W 076°20'0 0.0
2018-Feb-12 21:58N 36°57' W 076°20'0 0.0
2018-Feb-12 21:27N 36°57' W 076°20'0 0.0
2018-Feb-12 20:57N 36°57' W 076°20'0 0.0
2018-Feb-12 20:26N 36°57' W 076°20'0 0.0
2018-Feb-12 19:56N 36°57' W 076°20'2 4.1
2018-Feb-12 19:26N 36°59' W 076°19'1 2.6
2018-Feb-12 19:00N 36°58' W 076°20'1 2.3
2018-Feb-12 18:29N 36°57' W 076°20'0 0.0
2018-Feb-12 17:59N 36°57' W 076°20'0 0.0
2018-Feb-12 17:28N 36°57' W 076°20'0 0.0
2018-Feb-12 16:58N 36°57' W 076°20'0 0.0
2018-Feb-12 16:28N 36°57' W 076°20'0 0.0
2018-Feb-12 16:00N 36°57' W 076°20'0 0.5
2018-Feb-12 15:14N 36°57' W 076°20'0 1.5
2018-Feb-12 14:59N 36°58' W 076°20'0 0.8
2018-Feb-12 14:25N 36°57' W 076°20'0 0.0
2018-Feb-12 13:46N 36°57' W 076°20'0 0.0
2018-Feb-12 13:28N 36°57' W 076°20'0 0.0
2018-Feb-12 12:58N 36°57' W 076°20'0 0.0
2018-Feb-12 12:27N 36°57' W 076°20'1 1.2
2018-Feb-12 11:56N 36°57' W 076°20'0 0.4
2018-Feb-12 11:26N 36°57' W 076°20'0 0.2
2018-Feb-12 11:00N 36°57' W 076°20'1 1.0
2018-Feb-12 10:26N 36°57' W 076°20'0 0.0
2018-Feb-12 09:56N 36°57' W 076°20'0 0.0
2018-Feb-12 09:27N 36°57' W 076°20'0 0.0
2018-Feb-12 08:57N 36°57' W 076°20'0 0.0
2018-Feb-12 08:27N 36°57' W 076°20'0 0.0
2018-Feb-12 07:57N 36°57' W 076°20'0 0.0
2018-Feb-12 07:27N 36°57' W 076°20'0 0.0
2018-Feb-12 06:56N 36°57' W 076°20'0 0.0
2018-Feb-12 06:14N 36°57' W 076°20'0 0.0
2018-Feb-12 05:57N 36°57' W 076°20'0 0.0
2018-Feb-12 05:26N 36°57' W 076°20'0 0.0
2018-Feb-12 04:59N 36°57' W 076°20'0 0.0
2018-Feb-12 04:27N 36°57' W 076°20'0 0.0
2018-Feb-12 03:57N 36°57' W 076°20'0 0.0
2018-Feb-12 03:26N 36°57' W 076°20'0 0.0
2018-Feb-12 02:59N 36°57' W 076°20'0 0.0
2018-Feb-12 02:30N 36°57' W 076°20'0 0.0
2018-Feb-12 02:00N 36°57' W 076°20'0 0.0
2018-Feb-12 01:26N 36°57' W 076°20'0 0.0
2018-Feb-12 00:56N 36°57' W 076°20'0 0.0
2018-Feb-12 00:29N 36°57' W 076°20'0 0.0
2018-Feb-12 00:00N 36°57' W 076°20'0 0.0
2018-Feb-11 23:30N 36°57' W 076°20'0 0.0
2018-Feb-11 22:59N 36°57' W 076°20'0 0.0
2018-Feb-11 22:26N 36°57' W 076°20'0 0.0
2018-Feb-11 21:59N 36°57' W 076°20'0 0.0
2018-Feb-11 21:29N 36°57' W 076°20'0 0.0
2018-Feb-11 21:00N 36°57' W 076°20'0 0.0
2018-Feb-11 20:26N 36°57' W 076°20'0 0.0
2018-Feb-11 19:53N 36°57' W 076°20'0 0.1
2018-Feb-11 19:27N 36°57' W 076°20'4 9.7
2018-Feb-11 19:00N 36°53' W 076°20'1 1.2
2018-Feb-11 18:30N 36°52' W 076°20'0 0.4
2018-Feb-11 18:00N 36°52' W 076°20'0 0.1
2018-Feb-11 17:25N 36°52' W 076°20'0 0.0
2018-Feb-11 16:58N 36°52' W 076°20'0 0.1
2018-Feb-11 16:30N 36°52' W 076°20'0 0.0
2018-Feb-11 15:57N 36°52' W 076°20'0 0.5
2018-Feb-11 15:30N 36°52' W 076°20'3 5.0
2018-Feb-11 14:57N 36°55' W 076°20'2 2.0
2018-Feb-11 14:10N 36°57' W 076°20'1 3.8
2018-Feb-11 13:59N 36°57' W 076°20'0 0.0
2018-Feb-11 13:29N 36°57' W 076°20'0 0.0
2018-Feb-11 12:59N 36°57' W 076°20'0 0.0
2018-Feb-11 12:29N 36°57' W 076°20'0 0.0
2018-Feb-11 11:58N 36°57' W 076°20'0 0.0
2018-Feb-11 11:27N 36°57' W 076°20'0 0.0
2018-Feb-11 10:57N 36°57' W 076°20'0 0.0
2018-Feb-11 10:27N 36°57' W 076°20'0 0.0
2018-Feb-11 09:56N 36°57' W 076°20'0 0.0
2018-Feb-11 09:26N 36°57' W 076°20'0 0.0
2018-Feb-11 09:00N 36°57' W 076°20'0 0.0
2018-Feb-11 08:30N 36°57' W 076°20'0 0.0
2018-Feb-11 08:00N 36°57' W 076°20'0 0.0
2018-Feb-11 07:29N 36°57' W 076°20'0 0.0
2018-Feb-11 06:49N 36°57' W 076°20'0 0.0
2018-Feb-11 06:29N 36°57' W 076°20'0 0.0
2018-Feb-11 05:59N 36°57' W 076°20'0 0.0
2018-Feb-11 05:28N 36°57' W 076°20'0 0.0
2018-Feb-11 04:58N 36°57' W 076°20'0 0.0
2018-Feb-11 04:28N 36°57' W 076°20'0 0.0
2018-Feb-11 03:58N 36°57' W 076°20'0 0.0
2018-Feb-11 03:17N 36°57' W 076°20'0 0.0
2018-Feb-11 02:57N 36°57' W 076°20'0 0.0
2018-Feb-11 02:27N 36°57' W 076°20'0 0.0
2018-Feb-11 01:57N 36°57' W 076°20'0 0.0
2018-Feb-11 01:26N 36°57' W 076°20'0 0.0
2018-Feb-11 00:56N 36°57' W 076°20'0 0.0
2018-Feb-11 00:30N 36°57' W 076°20'0 0.0
2018-Feb-11 00:00N 36°57' W 076°20'0 0.0
2018-Feb-10 23:30N 36°57' W 076°20'0 0.0
2018-Feb-10 23:00N 36°57' W 076°20'  
Track history (hours):
 
Tides and Currents Weather Stations Pressure Air Temp Water Temp Dewpoint Dewpoint Depression Visibility Wind Speed Wind Dir Waves Ship Positions

Susan Moran

Owner: MORAN TOWING CORPORATION, New Canaan, CT. More information available from US FCC via Universal Licensing System and Coast Guard Vessel Documentation Center.

Last reported at 2018-Feb-20 22:59 UTC. Time now 2018-Feb-20 23:29 UTC.
Position N 36°57' W 076°20'.

Length 27 m; draft 4.2 m.

Type: Tug. MMSI: 366837130.

Date/timePositionNaut miles runAvg speedWind from/ knotsBaromVisibWave heightAir tempDewpointWater temp
2018-Feb-20 22:59N 36°57' W 076°20'0 0.0
2018-Feb-20 22:28N 36°57' W 076°20'0 0.0
2018-Feb-20 21:57N 36°57' W 076°20'0 0.0
2018-Feb-20 21:28N 36°57' W 076°20'0 0.0
2018-Feb-20 20:56N 36°57' W 076°20'0 0.0
2018-Feb-20 20:26N 36°57' W 076°20'0 0.0
2018-Feb-20 20:00N 36°57' W 076°20'0 0.0
2018-Feb-20 19:29N 36°57' W 076°20'0 0.0
2018-Feb-20 18:56N 36°57' W 076°20'0 0.0
2018-Feb-20 18:26N 36°57' W 076°20'0 0.0
2018-Feb-20 17:57N 36°57' W 076°20'0 0.0
2018-Feb-20 17:28N 36°57' W 076°20'0 0.0
2018-Feb-20 16:57N 36°57' W 076°20'0 0.0
2018-Feb-20 16:30N 36°57' W 076°20'0 0.0
2018-Feb-20 15:55N 36°57' W 076°20'0 0.0
2018-Feb-20 15:28N 36°57' W 076°20'0 0.0
2018-Feb-20 14:58N 36°57' W 076°20'0 0.0
2018-Feb-20 14:28N 36°57' W 076°20'0 0.0
2018-Feb-20 13:58N 36°57' W 076°20'0 0.0
2018-Feb-20 13:25N 36°57' W 076°20'0 0.0
2018-Feb-20 12:59N 36°57' W 076°20'0 0.0
2018-Feb-20 12:29N 36°57' W 076°20'0 0.0
2018-Feb-20 11:44N 36°57' W 076°20'0 0.0
2018-Feb-20 11:25N 36°57' W 076°20'0 0.0
2018-Feb-20 10:55N 36°57' W 076°20'0 0.0
2018-Feb-20 10:30N 36°57' W 076°20'0 0.0
2018-Feb-20 10:00N 36°57' W 076°20'0 0.0
2018-Feb-20 09:22N 36°57' W 076°20'0 0.0
2018-Feb-20 08:56N 36°57' W 076°20'0 0.0
2018-Feb-20 08:30N 36°57' W 076°20'0 0.0
2018-Feb-20 07:57N 36°57' W 076°20'0 0.0
2018-Feb-20 07:27N 36°57' W 076°20'0 0.0
2018-Feb-20 06:56N 36°57' W 076°20'0 0.0
2018-Feb-20 06:26N 36°57' W 076°20'0 0.0
2018-Feb-20 06:00N 36°57' W 076°20'0 0.0
2018-Feb-20 05:30N 36°57' W 076°20'0 0.0
2018-Feb-20 04:59N 36°57' W 076°20'0 0.0
2018-Feb-20 04:29N 36°57' W 076°20'0 0.0
2018-Feb-20 03:58N 36°57' W 076°20'0 0.0
2018-Feb-20 03:27N 36°57' W 076°20'0 0.0
2018-Feb-20 02:57N 36°57' W 076°20'0 0.0
2018-Feb-20 02:26N 36°57' W 076°20'0 0.0
2018-Feb-20 02:00N 36°57' W 076°20'0 0.0
2018-Feb-20 01:30N 36°57' W 076°20'0 0.0
2018-Feb-20 00:59N 36°57' W 076°20'0 0.0
2018-Feb-20 00:29N 36°57' W 076°20'0 0.0
2018-Feb-19 23:58N 36°57' W 076°20'0 0.0
2018-Feb-19 23:28N 36°57' W 076°20'0 0.0
2018-Feb-19 22:56N 36°57' W 076°20'1 2.3
2018-Feb-19 22:30N 36°56' W 076°20'0 0.1
2018-Feb-19 21:57N 36°56' W 076°20'1 1.9
2018-Feb-19 21:14N 36°58' W 076°20'1 2.8
2018-Feb-19 20:51N 36°57' W 076°20'0 0.7
2018-Feb-19 20:27N 36°57' W 076°20'2 3.4
2018-Feb-19 19:56N 36°58' W 076°20'1 2.3
2018-Feb-19 19:23N 36°57' W 076°20'0 0.0
2018-Feb-19 18:50N 36°57' W 076°20'0 0.0
2018-Feb-19 18:29N 36°57' W 076°20'0 0.0
2018-Feb-19 18:00N 36°57' W 076°20'0 0.4
2018-Feb-19 17:30N 36°57' W 076°20'510.3
2018-Feb-19 17:00N 36°52' W 076°20'2 3.7
2018-Feb-19 16:29N 36°54' W 076°20'3 5.0
2018-Feb-19 15:50N 36°57' W 076°20'0 0.4
2018-Feb-19 15:30N 36°57' W 076°20'1 1.7
2018-Feb-19 14:58N 36°56' W 076°20'4 8.0
2018-Feb-19 14:30N 36°53' W 076°20'2 3.8
2018-Feb-19 13:58N 36°55' W 076°20'2 4.4
2018-Feb-19 13:29N 36°57' W 076°20'0 0.5
2018-Feb-19 12:59N 36°57' W 076°20'1 0.9
2018-Feb-19 12:22N 36°57' W 076°20'0 0.0
2018-Feb-19 11:56N 36°57' W 076°20'0 0.0
2018-Feb-19 11:26N 36°57' W 076°20'0 0.0
2018-Feb-19 11:00N 36°57' W 076°20'0 0.0
2018-Feb-19 10:30N 36°57' W 076°20'0 0.0
2018-Feb-19 09:59N 36°57' W 076°20'0 0.0
2018-Feb-19 09:29N 36°57' W 076°20'0 0.0
2018-Feb-19 08:39N 36°57' W 076°20'0 0.0
2018-Feb-19 08:24N 36°57' W 076°20'0 0.0
2018-Feb-19 07:58N 36°57' W 076°20'0 0.0
2018-Feb-19 07:26N 36°57' W 076°20'0 0.0
2018-Feb-19 06:57N 36°57' W 076°20'0 0.0
2018-Feb-19 06:17N 36°57' W 076°20'0 0.0
2018-Feb-19 05:57N 36°57' W 076°20'0 0.0
2018-Feb-19 05:26N 36°57' W 076°20'0 0.0
2018-Feb-19 04:56N 36°57' W 076°20'0 0.0
2018-Feb-19 04:30N 36°57' W 076°20'0 0.0
2018-Feb-19 03:52N 36°57' W 076°20'0 0.0
2018-Feb-19 03:26N 36°57' W 076°20'0 0.0
2018-Feb-19 03:00N 36°57' W 076°20'0 0.0
2018-Feb-19 02:29N 36°57' W 076°20'0 0.0
2018-Feb-19 01:59N 36°57' W 076°20'0 0.0
2018-Feb-19 01:27N 36°57' W 076°20'0 0.0
2018-Feb-19 01:00N 36°57' W 076°20'0 0.0
2018-Feb-19 00:28N 36°57' W 076°20'0 0.0
2018-Feb-18 23:58N 36°57' W 076°20'0 0.0
2018-Feb-18 23:27N 36°57' W 076°20'0 0.0
2018-Feb-18 22:59N 36°57' W 076°20'0 0.0
2018-Feb-18 22:30N 36°57' W 076°20'0 0.0
2018-Feb-18 21:31N 36°57' W 076°20'0 0.0
2018-Feb-18 21:23N 36°57' W 076°20'0 0.0
2018-Feb-18 20:58N 36°57' W 076°20'0 0.0
2018-Feb-18 20:27N 36°57' W 076°20'0 0.0
2018-Feb-18 19:57N 36°57' W 076°20'0 0.0
2018-Feb-18 19:27N 36°57' W 076°20'0 0.0
2018-Feb-18 18:59N 36°57' W 076°20'0 0.0
2018-Feb-18 18:30N 36°57' W 076°20'0 0.0
2018-Feb-18 17:46N 36°57' W 076°20'0 0.0
2018-Feb-18 17:26N 36°57' W 076°20'0 0.0
2018-Feb-18 17:00N 36°57' W 076°20'0 0.0
2018-Feb-18 16:27N 36°57' W 076°20'0 0.0
2018-Feb-18 15:56N 36°57' W 076°20'0 0.0
2018-Feb-18 15:25N 36°57' W 076°20'0 0.0
2018-Feb-18 14:58N 36°57' W 076°20'0 0.0
2018-Feb-18 14:27N 36°57' W 076°20'0 0.0
2018-Feb-18 13:56N 36°57' W 076°20'0 0.0
2018-Feb-18 13:26N 36°57' W 076°20'0 0.0
2018-Feb-18 12:56N 36°57' W 076°20'0 0.0
2018-Feb-18 12:30N 36°57' W 076°20'0 0.0
2018-Feb-18 11:59N 36°57' W 076°20'0 0.0
2018-Feb-18 11:24N 36°57' W 076°20'0 0.0
2018-Feb-18 10:51N 36°57' W 076°20'0 0.0
2018-Feb-18 10:26N 36°57' W 076°20'0 0.0
2018-Feb-18 09:48N 36°57' W 076°20'0 0.0
2018-Feb-18 09:23N 36°57' W 076°20'0 0.0
2018-Feb-18 08:59N 36°57' W 076°20'0 0.0
2018-Feb-18 08:28N 36°57' W 076°20'0 0.0
2018-Feb-18 07:57N 36°57' W 076°20'0 0.0
2018-Feb-18 07:22N 36°57' W 076°20'0 0.0
2018-Feb-18 06:51N 36°57' W 076°20'0 0.0
2018-Feb-18 06:26N 36°57' W 076°20'0 0.0
2018-Feb-18 06:00N 36°57' W 076°20'0 0.0
2018-Feb-18 05:29N 36°57' W 076°20'0 0.0
2018-Feb-18 04:59N 36°57' W 076°20'0 0.0
2018-Feb-18 04:28N 36°57' W 076°20'0 0.0
2018-Feb-18 03:55N 36°57' W 076°20'0 0.0
2018-Feb-18 03:29N 36°57' W 076°20'0 0.0
2018-Feb-18 02:58N 36°57' W 076°20'0 0.0
2018-Feb-18 02:28N 36°57' W 076°20'0 0.0
2018-Feb-18 01:57N 36°57' W 076°20'0 0.0
2018-Feb-18 01:30N 36°57' W 076°20'0 0.0
2018-Feb-18 00:57N 36°57' W 076°20'0 0.0
2018-Feb-18 00:26N 36°57' W 076°20'0 0.0
2018-Feb-18 00:00N 36°57' W 076°20'0 0.0
2018-Feb-17 23:29N 36°57' W 076°20'0 0.0
2018-Feb-17 22:59N 36°57' W 076°20'0 0.0
2018-Feb-17 22:29N 36°57' W 076°20'0 0.0
2018-Feb-17 21:59N 36°57' W 076°20'0 0.0
2018-Feb-17 21:28N 36°57' W 076°20'0 0.0
2018-Feb-17 20:58N 36°57' W 076°20'0 0.0
2018-Feb-17 20:27N 36°57' W 076°20'0 0.0
2018-Feb-17 19:57N 36°57' W 076°20'0 0.0
2018-Feb-17 19:27N 36°57' W 076°20'0 0.0
2018-Feb-17 18:57N 36°57' W 076°20'0 0.0
2018-Feb-17 18:27N 36°57' W 076°20'0 0.0
2018-Feb-17 17:56N 36°57' W 076°20'0 0.0
2018-Feb-17 17:26N 36°57' W 076°20'0 0.0
2018-Feb-17 17:00N 36°57' W 076°20'0 0.0
2018-Feb-17 16:30N 36°57' W 076°20'0 0.0
2018-Feb-17 15:59N 36°57' W 076°20'0 0.0
2018-Feb-17 15:29N 36°57' W 076°20'0 0.0
2018-Feb-17 14:58N 36°57' W 076°20'0 0.0
2018-Feb-17 14:28N 36°57' W 076°20'0 0.0
2018-Feb-17 01:21N 36°57' W 076°20'0 0.0
2018-Feb-17 00:56N 36°57' W 076°20'0 0.0
2018-Feb-17 00:29N 36°57' W 076°20'0 0.0
2018-Feb-16 23:54N 36°57' W 076°20'0 0.0
2018-Feb-16 23:27N 36°57' W 076°20'0 0.0
2018-Feb-16 22:46N 36°57' W 076°20'0 0.0
2018-Feb-16 22:30N 36°57' W 076°20'0 0.0
2018-Feb-16 21:59N 36°57' W 076°20'0 0.0
2018-Feb-16 21:28N 36°57' W 076°20'0 0.0
2018-Feb-16 20:57N 36°57' W 076°20'0 0.0
2018-Feb-16 20:28N 36°57' W 076°20'0 0.0
2018-Feb-16 19:57N 36°57' W 076°20'0 0.0
2018-Feb-16 19:29N 36°57' W 076°20'0 0.0
2018-Feb-16 18:58N 36°57' W 076°20'0 0.0
2018-Feb-16 18:27N 36°57' W 076°20'0 0.0
2018-Feb-16 17:56N 36°57' W 076°20'2 4.4
2018-Feb-16 17:29N 36°59' W 076°19'510.5
2018-Feb-16 16:59N 36°60' W 076°12'5 8.2
2018-Feb-16 16:23N 37°04' W 076°10'411.2
2018-Feb-16 16:00N 37°08' W 076°13'3 0.7
2018-Feb-16 12:00N 37°11' W 076°14'611.2
2018-Feb-16 11:29N 37°06' W 076°11'5 9.4
2018-Feb-16 10:54N 37°00' W 076°12'511.5
2018-Feb-16 10:29N 36°60' W 076°18'3 0.3
2018-Feb-16 00:07N 36°57' W 076°20'0 0.0
2018-Feb-15 23:57N 36°57' W 076°20'0 0.0
2018-Feb-15 23:14N 36°57' W 076°20'0 0.0
2018-Feb-15 22:59N 36°57' W 076°20'0 0.0
2018-Feb-15 22:28N 36°57' W 076°20'0 0.0
2018-Feb-15 21:58N 36°57' W 076°20'0 0.4
2018-Feb-15 21:27N 36°57' W 076°20'0 0.7
2018-Feb-15 20:57N 36°57' W 076°20'0 0.3
2018-Feb-15 20:26N 36°57' W 076°20'2 3.2
2018-Feb-15 19:56N 36°58' W 076°20'1 2.8
2018-Feb-15 19:29N 36°57' W 076°20'0 0.0
2018-Feb-15 18:57N 36°57' W 076°20'0 0.0
2018-Feb-15 18:28N 36°57' W 076°20'0 0.0
2018-Feb-15 18:00N 36°57' W 076°20'0 0.0
2018-Feb-15 17:30N 36°57' W 076°20'0 0.0
2018-Feb-15 17:00N 36°57' W 076°20'0 0.0
2018-Feb-15 16:29N 36°57' W 076°20'0 0.0
2018-Feb-15 15:59N 36°57' W 076°20'0 0.0
2018-Feb-15 15:28N 36°57' W 076°20'0 0.0
2018-Feb-15 14:57N 36°57' W 076°20'0 0.0
2018-Feb-15 14:26N 36°57' W 076°20'0 0.0
2018-Feb-15 13:59N 36°57' W 076°20'0 0.0
2018-Feb-15 13:28N 36°57' W 076°20'0 0.0
2018-Feb-15 12:58N 36°57' W 076°20'0 0.0
2018-Feb-15 12:27N 36°57' W 076°20'0 0.0
2018-Feb-15 11:57N 36°57' W 076°20'0 0.0
2018-Feb-15 11:27N 36°57' W 076°20'0 0.0
2018-Feb-15 10:56N 36°57' W 076°20'0 0.0
2018-Feb-15 10:29N 36°57' W 076°20'0 0.0
2018-Feb-15 09:59N 36°57' W 076°20'0 0.0
2018-Feb-15 09:27N 36°57' W 076°20'0 0.0
2018-Feb-15 08:59N 36°57' W 076°20'0 0.0
2018-Feb-15 08:09N 36°57' W 076°20'0 0.0
2018-Feb-15 07:39N 36°57' W 076°20'0 0.0
2018-Feb-15 07:30N 36°57' W 076°20'0 0.0
2018-Feb-15 06:58N 36°57' W 076°20'0 0.0
2018-Feb-15 06:21N 36°57' W 076°20'0 0.0
2018-Feb-15 05:58N 36°57' W 076°20'0 0.0
2018-Feb-15 05:27N 36°57' W 076°20'0 0.0
2018-Feb-15 04:58N 36°57' W 076°20'0 0.0
2018-Feb-15 04:27N 36°57' W 076°20'0 0.0
2018-Feb-15 04:00N 36°57' W 076°20'0 0.0
2018-Feb-15 03:29N 36°57' W 076°20'0 0.0
2018-Feb-15 02:59N 36°57' W 076°20'0 0.0
2018-Feb-15 02:28N 36°57' W 076°20'0 0.0
2018-Feb-15 01:57N 36°57' W 076°20'0 0.0
2018-Feb-15 01:27N 36°57' W 076°20'0 0.0
2018-Feb-15 00:56N 36°57' W 076°20'0 0.0
2018-Feb-15 00:26N 36°57' W 076°20'0 0.0
2018-Feb-14 23:56N 36°57' W 076°20'0 0.0
2018-Feb-14 23:30N 36°57' W 076°20'0 0.0
2018-Feb-14 23:00N 36°57' W 076°20'0 0.0
2018-Feb-14 22:30N 36°57' W 076°20'0 0.0
2018-Feb-14 21:59N 36°57' W 076°20'0 0.0
2018-Feb-14 21:29N 36°57' W 076°20'0 0.4
2018-Feb-14 20:39N 36°57' W 076°20'0 0.9
2018-Feb-14 20:15N 36°57' W 076°20'0 0.0
2018-Feb-14 20:00N 36°57' W 076°20'0 0.3
2018-Feb-14 19:30N 36°57' W 076°20'510.7
2018-Feb-14 19:00N 36°52' W 076°19'4 8.0
2018-Feb-14 18:30N 36°48' W 076°17'1 1.3
2018-Feb-14 18:00N 36°48' W 076°18'0 0.0
2018-Feb-14 17:30N 36°48' W 076°18'0 0.0
2018-Feb-14 17:01N 36°48' W 076°18'0 0.0
2018-Feb-14 16:30N 36°48' W 076°18'0 0.1
2018-Feb-14 16:00N 36°48' W 076°18'4 7.2
2018-Feb-14 15:30N 36°51' W 076°19'6 9.8
2018-Feb-14 14:53N 36°57' W 076°20'0 0.2
2018-Feb-14 14:28N 36°57' W 076°20'0 0.8
2018-Feb-14 13:58N 36°57' W 076°20'1 1.5
2018-Feb-14 13:28N 36°58' W 076°20'0 0.0
2018-Feb-14 12:57N 36°58' W 076°20'0 0.2
2018-Feb-14 12:27N 36°58' W 076°20'1 1.2
2018-Feb-14 11:56N 36°58' W 076°20'1 2.2
2018-Feb-14 11:28N 36°57' W 076°20'0 0.0
2018-Feb-14 10:58N 36°57' W 076°20'0 0.0
2018-Feb-14 10:27N 36°57' W 076°20'0 0.0
2018-Feb-14 09:57N 36°57' W 076°20'0 0.0
2018-Feb-14 09:26N 36°57' W 076°20'0 0.0
2018-Feb-14 08:56N 36°57' W 076°20'0 0.0
2018-Feb-14 08:26N 36°57' W 076°20'0 0.0
2018-Feb-14 08:00N 36°57' W 076°20'0 0.0
2018-Feb-14 07:30N 36°57' W 076°20'0 0.0
2018-Feb-14 06:59N 36°57' W 076°20'0 0.0
2018-Feb-14 06:29N 36°57' W 076°20'0 0.0
2018-Feb-14 05:59N 36°57' W 076°20'0 0.0
2018-Feb-14 05:28N 36°57' W 076°20'0 0.0
2018-Feb-14 04:58N 36°57' W 076°20'0 0.0
2018-Feb-14 04:28N 36°57' W 076°20'0 0.0
2018-Feb-14 03:57N 36°57' W 076°20'0 0.0
2018-Feb-14 03:27N 36°57' W 076°20'0 0.0
2018-Feb-14 02:57N 36°57' W 076°20'0 0.0
2018-Feb-14 02:26N 36°57' W 076°20'0 0.0
2018-Feb-14 01:54N 36°57' W 076°20'0 0.0
2018-Feb-14 01:29N 36°57' W 076°20'0 0.0
2018-Feb-14 00:53N 36°57' W 076°20'0 0.0
2018-Feb-14 00:23N 36°57' W 076°20'0 0.0
2018-Feb-13 23:57N 36°57' W 076°20'0 0.0
2018-Feb-13 23:29N 36°57' W 076°20'0 0.0
2018-Feb-13 22:59N 36°57' W 076°20'0 0.0
2018-Feb-13 22:27N 36°57' W 076°20'0 0.0
2018-Feb-13 21:57N 36°57' W 076°20'0 0.0
2018-Feb-13 21:26N 36°57' W 076°20'0 0.0
2018-Feb-13 20:59N 36°57' W 076°20'0 0.0
2018-Feb-13 20:29N 36°57' W 076°20'0 0.0
2018-Feb-13 19:58N 36°57' W 076°20'0 0.0
2018-Feb-13 19:28N 36°57' W 076°20'4 9.3
2018-Feb-13 19:01N 36°53' W 076°20'4 7.8
2018-Feb-13 18:30N 36°50' W 076°18'1 1.0
2018-Feb-13 18:00N 36°49' W 076°18'0 0.6
2018-Feb-13 17:31N 36°49' W 076°18'0 0.3
2018-Feb-13 17:00N 36°49' W 076°18'0 0.2
2018-Feb-13 16:31N 36°49' W 076°18'0 0.0
2018-Feb-13 16:00N 36°49' W 076°18'0 0.0
2018-Feb-13 15:31N 36°49' W 076°18'3 5.2
2018-Feb-13 15:00N 36°51' W 076°19'6 9.8
2018-Feb-13 14:26N 36°57' W 076°20'0 1.1
2018-Feb-13 14:00N 36°57' W 076°20'0 0.0
2018-Feb-13 13:28N 36°57' W 076°20'0 0.0
2018-Feb-13 12:58N 36°57' W 076°20'0 0.0
2018-Feb-13 12:22N 36°57' W 076°20'0 0.0
2018-Feb-13 11:54N 36°57' W 076°20'1 1.3
2018-Feb-13 11:26N 36°58' W 076°20'1 1.3
2018-Feb-13 11:00N 36°58' W 076°20'0 0.8
2018-Feb-13 10:29N 36°57' W 076°20'0 0.0
2018-Feb-13 09:57N 36°57' W 076°20'0 0.0
2018-Feb-13 09:26N 36°57' W 076°20'0 0.0
2018-Feb-13 08:55N 36°57' W 076°20'0 0.0
2018-Feb-13 08:29N 36°57' W 076°20'0 0.0
2018-Feb-13 07:59N 36°57' W 076°20'0 0.0
2018-Feb-13 07:27N 36°57' W 076°20'0 0.0
2018-Feb-13 06:57N 36°57' W 076°20'0 0.0
2018-Feb-13 06:26N 36°57' W 076°20'0 0.0
2018-Feb-13 06:00N 36°57' W 076°20'0 0.0
2018-Feb-13 05:30N 36°57' W 076°20'0 0.0
2018-Feb-13 04:59N 36°57' W 076°20'0 0.0
2018-Feb-13 04:29N 36°57' W 076°20'0 0.0
2018-Feb-13 03:59N 36°57' W 076°20'0 0.0
2018-Feb-13 03:28N 36°57' W 076°20'0 0.0
2018-Feb-13 02:58N 36°57' W 076°20'0 0.0
2018-Feb-13 02:28N 36°57' W 076°20'0 0.0
2018-Feb-13 01:57N 36°57' W 076°20'0 0.0
2018-Feb-13 01:27N 36°57' W 076°20'0 0.0
2018-Feb-13 00:56N 36°57' W 076°20'0 0.0
2018-Feb-13 00:30N 36°57' W 076°20'0 0.0
2018-Feb-12 23:58N 36°57' W 076°20'0 0.0
2018-Feb-12 23:25N 36°57' W 076°20'0 0.0
2018-Feb-12 23:00N 36°57' W 076°20'0 0.0
2018-Feb-12 22:29N 36°57' W 076°20'0 0.0
2018-Feb-12 21:58N 36°57' W 076°20'0 0.0
2018-Feb-12 21:27N 36°57' W 076°20'0 0.0
2018-Feb-12 20:57N 36°57' W 076°20'0 0.0
2018-Feb-12 20:26N 36°57' W 076°20'0 0.0
2018-Feb-12 19:56N 36°57' W 076°20'2 4.1
2018-Feb-12 19:26N 36°59' W 076°19'1 2.6
2018-Feb-12 19:00N 36°58' W 076°20'1 2.3
2018-Feb-12 18:29N 36°57' W 076°20'0 0.0
2018-Feb-12 17:59N 36°57' W 076°20'0 0.0
2018-Feb-12 17:28N 36°57' W 076°20'0 0.0
2018-Feb-12 16:58N 36°57' W 076°20'0 0.0
2018-Feb-12 16:28N 36°57' W 076°20'0 0.0
2018-Feb-12 16:00N 36°57' W 076°20'0 0.5
2018-Feb-12 15:14N 36°57' W 076°20'0 1.5
2018-Feb-12 14:59N 36°58' W 076°20'0 0.8
2018-Feb-12 14:25N 36°57' W 076°20'0 0.0
2018-Feb-12 13:46N 36°57' W 076°20'0 0.0
2018-Feb-12 13:28N 36°57' W 076°20'0 0.0
2018-Feb-12 12:58N 36°57' W 076°20'0 0.0
2018-Feb-12 12:27N 36°57' W 076°20'1 1.2
2018-Feb-12 11:56N 36°57' W 076°20'0 0.4
2018-Feb-12 11:26N 36°57' W 076°20'0 0.2
2018-Feb-12 11:00N 36°57' W 076°20'1 1.0
2018-Feb-12 10:26N 36°57' W 076°20'0 0.0
2018-Feb-12 09:56N 36°57' W 076°20'0 0.0
2018-Feb-12 09:27N 36°57' W 076°20'0 0.0
2018-Feb-12 08:57N 36°57' W 076°20'0 0.0
2018-Feb-12 08:27N 36°57' W 076°20'0 0.0
2018-Feb-12 07:57N 36°57' W 076°20'0 0.0
2018-Feb-12 07:27N 36°57' W 076°20'0 0.0
2018-Feb-12 06:56N 36°57' W 076°20'0 0.0
2018-Feb-12 06:14N 36°57' W 076°20'0 0.0
2018-Feb-12 05:57N 36°57' W 076°20'0 0.0
2018-Feb-12 05:26N 36°57' W 076°20'0 0.0
2018-Feb-12 04:59N 36°57' W 076°20'0 0.0
2018-Feb-12 04:27N 36°57' W 076°20'0 0.0
2018-Feb-12 03:57N 36°57' W 076°20'0 0.0
2018-Feb-12 03:26N 36°57' W 076°20'0 0.0
2018-Feb-12 02:59N 36°57' W 076°20'0 0.0
2018-Feb-12 02:30N 36°57' W 076°20'0 0.0
2018-Feb-12 02:00N 36°57' W 076°20'0 0.0
2018-Feb-12 01:26N 36°57' W 076°20'0 0.0
2018-Feb-12 00:56N 36°57' W 076°20'0 0.0
2018-Feb-12 00:29N 36°57' W 076°20'0 0.0
2018-Feb-12 00:00N 36°57' W 076°20'0 0.0
2018-Feb-11 23:30N 36°57' W 076°20'0 0.0
2018-Feb-11 22:59N 36°57' W 076°20'0 0.0
2018-Feb-11 22:26N 36°57' W 076°20'0 0.0
2018-Feb-11 21:59N 36°57' W 076°20'0 0.0
2018-Feb-11 21:29N 36°57' W 076°20'0 0.0
2018-Feb-11 21:00N 36°57' W 076°20'0 0.0
2018-Feb-11 20:26N 36°57' W 076°20'0 0.0
2018-Feb-11 19:53N 36°57' W 076°20'0 0.1
2018-Feb-11 19:27N 36°57' W 076°20'4 9.7
2018-Feb-11 19:00N 36°53' W 076°20'1 1.2
2018-Feb-11 18:30N 36°52' W 076°20'0 0.4
2018-Feb-11 18:00N 36°52' W 076°20'0 0.1
2018-Feb-11 17:25N 36°52' W 076°20'0 0.0
2018-Feb-11 16:58N 36°52' W 076°20'0 0.1
2018-Feb-11 16:30N 36°52' W 076°20'0 0.0
2018-Feb-11 15:57N 36°52' W 076°20'0 0.5
2018-Feb-11 15:30N 36°52' W 076°20'3 5.0
2018-Feb-11 14:57N 36°55' W 076°20'2 2.0
2018-Feb-11 14:10N 36°57' W 076°20'1 3.8
2018-Feb-11 13:59N 36°57' W 076°20'0 0.0
2018-Feb-11 13:29N 36°57' W 076°20'0 0.0
2018-Feb-11 12:59N 36°57' W 076°20'0 0.0
2018-Feb-11 12:29N 36°57' W 076°20'0 0.0
2018-Feb-11 11:58N 36°57' W 076°20'0 0.0
2018-Feb-11 11:27N 36°57' W 076°20'0 0.0
2018-Feb-11 10:57N 36°57' W 076°20'0 0.0
2018-Feb-11 10:27N 36°57' W 076°20'0 0.0
2018-Feb-11 09:56N 36°57' W 076°20'0 0.0
2018-Feb-11 09:26N 36°57' W 076°20'0 0.0
2018-Feb-11 09:00N 36°57' W 076°20'0 0.0
2018-Feb-11 08:30N 36°57' W 076°20'0 0.0
2018-Feb-11 08:00N 36°57' W 076°20'0 0.0
2018-Feb-11 07:29N 36°57' W 076°20'0 0.0
2018-Feb-11 06:49N 36°57' W 076°20'0 0.0
2018-Feb-11 06:29N 36°57' W 076°20'0 0.0
2018-Feb-11 05:59N 36°57' W 076°20'0 0.0
2018-Feb-11 05:28N 36°57' W 076°20'0 0.0
2018-Feb-11 04:58N 36°57' W 076°20'0 0.0
2018-Feb-11 04:28N 36°57' W 076°20'0 0.0
2018-Feb-11 03:58N 36°57' W 076°20'0 0.0
2018-Feb-11 03:17N 36°57' W 076°20'0 0.0
2018-Feb-11 02:57N 36°57' W 076°20'0 0.0
2018-Feb-11 02:27N 36°57' W 076°20'0 0.0
2018-Feb-11 01:57N 36°57' W 076°20'0 0.0
2018-Feb-11 01:26N 36°57' W 076°20'0 0.0
2018-Feb-11 00:56N 36°57' W 076°20'0 0.0
2018-Feb-11 00:30N 36°57' W 076°20'0 0.0
2018-Feb-11 00:00N 36°57' W 076°20'0 0.0
2018-Feb-10 23:30N 36°57' W 076°20'0 0.0
2018-Feb-10 23:00N 36°57' W 076°20'  

Dump ship's entire track history